Time;durP1;ratioP1;P1;durP2;ratioP2;P2;SDS_P1;SDS_P2;PMS_P1;PMS_P2;Temp;Humidity;BMP_temperature;BMP_pressure;BME280_temperature;BME280_humidity;BME280_pressure;Samples;Min_cycle;Max_cycle;Signal;HPM_P1;HPM_P2
2024/02/16 00:01:03;;;;;;;0.40;0.40;;;;;;;5.31;100.00;99983.31;5025622;28;20084;-66
2024/02/16 00:03:29;;;;;;;0.30;0.30;;;;;;;5.39;100.00;99975.63;5027021;28;20089;-66
2024/02/16 00:05:55;;;;;;;0.40;0.40;;;;;;;5.44;100.00;99975.66;5027358;28;20024;-68
2024/02/16 00:08:21;;;;;;;0.40;0.40;;;;;;;5.44;100.00;99981.66;5026582;28;20072;-67
2024/02/16 00:10:47;;;;;;;0.40;0.40;;;;;;;5.48;100.00;99974.81;5027133;28;20092;-68
2024/02/16 00:13:13;;;;;;;0.40;0.40;;;;;;;5.66;100.00;99971.47;5026725;28;20029;-68
2024/02/16 00:15:38;;;;;;;0.40;0.40;;;;;;;5.57;100.00;99958.56;5025484;28;20537;-66
2024/02/16 00:18:04;;;;;;;0.98;0.98;;;;;;;5.57;100.00;99961.97;5026647;28;20044;-66
2024/02/16 00:20:31;;;;;;;0.40;0.40;;;;;;;5.58;100.00;99947.41;5026758;28;20024;-66
2024/02/16 00:22:56;;;;;;;0.40;0.40;;;;;;;5.60;100.00;99957.69;5026399;28;20021;-67
2024/02/16 00:25:22;;;;;;;0.40;0.40;;;;;;;5.60;100.00;99945.69;5026493;28;20100;-67
2024/02/16 00:27:47;;;;;;;0.40;0.40;;;;;;;5.65;100.00;99951.75;5026507;28;20014;-66
2024/02/16 00:30:15;;;;;;;0.40;0.40;;;;;;;5.67;100.00;99944.00;5026677;28;20489;-67
2024/02/16 00:32:41;;;;;;;0.40;0.40;;;;;;;5.68;100.00;99949.16;5024969;28;20134;-67
2024/02/16 00:35:06;;;;;;;0.40;0.40;;;;;;;5.70;100.00;99944.88;5026444;28;20025;-67
2024/02/16 00:37:32;;;;;;;0.40;0.40;;;;;;;5.72;100.00;99951.75;5025045;28;20144;-67
2024/02/16 00:39:57;;;;;;;0.47;0.47;;;;;;;5.75;100.00;99946.63;5026190;28;20093;-66
2024/02/16 00:42:27;;;;;;;0.40;0.40;;;;;;;5.77;100.00;99947.47;5026172;28;20086;-67
2024/02/16 00:44:53;;;;;;;0.40;0.40;;;;;;;5.77;100.00;99952.63;5026574;28;20412;-67
2024/02/16 00:47:18;;;;;;;0.40;0.40;;;;;;;5.79;100.00;99953.50;5026204;28;20503;-67
2024/02/16 00:49:43;;;;;;;0.40;0.40;;;;;;;5.86;100.00;99954.38;5026101;28;20060;-66
2024/02/16 00:52:10;;;;;;;0.40;0.40;;;;;;;5.89;100.00;99956.97;5026155;28;20018;-68
2024/02/16 00:54:36;;;;;;;0.40;0.40;;;;;;;5.91;100.00;99963.00;5026023;28;20072;-67
2024/02/16 00:57:02;;;;;;;0.40;0.40;;;;;;;5.97;100.00;99963.03;5026083;28;20092;-66
2024/02/16 00:59:30;;;;;;;0.40;0.40;;;;;;;5.99;100.00;99952.72;5024823;28;20033;-67
2024/02/16 01:01:56;;;;;;;0.40;0.40;;;;;;;6.04;100.00;99940.69;5026206;28;20101;-67
2024/02/16 01:04:22;;;;;;;0.40;0.40;;;;;;;6.06;100.00;99949.31;5025996;28;20179;-66
2024/02/16 01:06:48;;;;;;;0.40;0.40;;;;;;;6.09;100.00;99949.31;5024759;28;20017;-66
2024/02/16 01:09:13;;;;;;;0.40;0.40;;;;;;;6.10;100.00;99943.34;5024411;28;20024;-66
2024/02/16 01:11:41;;;;;;;0.40;0.40;;;;;;;6.14;100.00;99934.75;5024740;28;20022;-66
2024/02/16 01:14:07;;;;;;;0.40;0.40;;;;;;;6.20;100.00;99942.50;5024597;28;20026;-66
2024/02/16 01:16:32;;;;;;;0.40;0.40;;;;;;;6.23;100.00;99922.75;5025572;28;20033;-66
2024/02/16 01:18:58;;;;;;;0.40;0.40;;;;;;;6.29;100.00;99933.91;5025677;28;20033;-66
2024/02/16 01:21:24;;;;;;;0.40;0.40;;;;;;;6.34;100.00;99925.31;5025411;28;20395;-66
2024/02/16 01:23:50;;;;;;;0.40;0.40;;;;;;;6.38;100.00;99927.91;5025351;28;20088;-67
2024/02/16 01:26:16;;;;;;;0.40;0.40;;;;;;;6.43;100.00;99923.63;5025812;28;20022;-67
2024/02/16 01:28:41;;;;;;;0.40;0.40;;;;;;;6.47;100.00;99919.31;5025584;28;20026;-66
2024/02/16 01:31:06;;;;;;;0.40;0.40;;;;;;;6.47;100.00;99918.47;5025601;28;20026;-66
2024/02/16 01:33:34;;;;;;;0.40;0.40;;;;;;;6.50;100.00;99915.88;5025445;28;20565;-66
2024/02/16 01:36:00;;;;;;;0.40;0.40;;;;;;;6.50;100.00;99911.56;5025305;28;20026;-67
2024/02/16 01:38:25;;;;;;;0.40;0.40;;;;;;;6.55;100.00;99911.59;5025061;28;20355;-66
2024/02/16 01:40:50;;;;;;;0.40;0.40;;;;;;;6.61;100.00;99908.16;5025459;28;20029;-67
2024/02/16 01:43:20;;;;;;;0.40;0.40;;;;;;;6.73;100.00;99904.69;5025218;28;20100;-66
2024/02/16 01:45:45;;;;;;;0.40;0.40;;;;;;;6.78;100.00;99898.69;5024012;28;20037;-66
2024/02/16 01:48:11;;;;;;;0.40;0.40;;;;;;;6.84;100.00;99892.66;5025185;28;20025;-66
2024/02/16 01:50:38;;;;;;;0.40;0.40;;;;;;;6.92;100.00;99890.91;5025142;28;20068;-67
2024/02/16 01:53:04;;;;;;;0.40;0.40;;;;;;;7.03;100.00;99885.72;5024905;28;20454;-67
2024/02/16 01:55:29;;;;;;;0.40;0.40;;;;;;;7.12;100.00;99889.16;5024821;28;20086;-67
2024/02/16 01:57:57;;;;;;;0.40;0.40;;;;;;;7.26;100.00;99889.97;5023799;28;20045;-66
2024/02/16 02:00:22;;;;;;;0.40;0.40;;;;;;;7.37;100.00;99882.19;5025097;28;20033;-67
2024/02/16 02:02:48;;;;;;;0.40;0.40;;;;;;;7.47;100.00;99885.59;5023989;28;20033;-67
2024/02/16 02:05:14;;;;;;;0.77;0.75;;;;;;;7.54;100.00;99878.69;5025022;28;20049;-66
2024/02/16 02:07:40;;;;;;;0.40;0.40;;;;;;;7.59;100.00;99883.84;5023606;28;20532;-66
2024/02/16 02:10:06;;;;;;;0.40;0.40;;;;;;;7.67;100.00;99871.72;5024962;28;20034;-66
2024/02/16 02:12:32;;;;;;;0.40;0.40;;;;;;;7.75;100.00;99875.13;5024770;28;20033;-67
2024/02/16 02:14:57;;;;;;;0.40;0.40;;;;;;;7.82;100.00;99881.13;5024087;28;20022;-66
2024/02/16 02:17:23;;;;;;;0.40;0.40;;;;;;;7.87;100.00;99876.81;5024909;28;20085;-66
2024/02/16 02:19:49;;;;;;;0.40;0.40;;;;;;;7.92;100.00;99881.94;5024761;28;20033;-67
2024/02/16 02:22:18;;;;;;;0.40;0.40;;;;;;;7.97;100.00;99879.34;5024951;28;20079;-66
2024/02/16 02:24:45;;;;;;;0.40;0.40;;;;;;;7.98;100.00;99879.31;5024750;28;20026;-66
2024/02/16 02:27:11;;;;;;;0.40;0.40;;;;;;;8.05;100.00;99874.97;5025037;28;20025;-66
2024/02/16 02:29:36;;;;;;;0.40;0.40;;;;;;;8.03;100.00;99877.56;5024852;28;20078;-66
2024/02/16 02:32:02;;;;;;;0.40;0.40;;;;;;;8.03;100.00;99866.38;5024095;28;20057;-67
2024/02/16 02:34:27;;;;;;;0.40;0.40;;;;;;;8.06;100.00;99874.09;5027367;28;20535;-67
2024/02/16 02:36:53;;;;;;;0.32;0.32;;;;;;;8.05;100.00;99872.41;5028716;28;20041;-67
2024/02/16 02:39:18;;;;;;;0.40;0.40;;;;;;;7.99;100.00;99867.22;5028471;28;20081;-66
2024/02/16 02:41:44;;;;;;;0.40;0.40;;;;;;;8.04;100.00;99868.06;5028622;28;20084;-66
2024/02/16 02:44:09;;;;;;;0.40;0.40;;;;;;;8.04;100.00;99863.78;5027053;28;20025;-66
2024/02/16 02:46:35;;;;;;;0.40;0.40;;;;;;;8.06;100.00;99874.97;5027084;28;20025;-65
2024/02/16 02:49:00;;;;;;;0.40;0.40;;;;;;;8.04;100.00;99868.06;5028362;28;20045;-67
2024/02/16 02:51:26;;;;;;;0.40;0.40;;;;;;;8.03;100.00;99866.38;5028504;28;20030;-66
2024/02/16 02:53:52;;;;;;;0.30;0.30;;;;;;;8.04;100.00;99865.47;5026743;28;20551;-68
2024/02/16 02:56:18;;;;;;;0.40;0.40;;;;;;;8.04;100.00;99847.38;5028279;28;20494;-67
2024/02/16 02:58:43;;;;;;;0.40;0.40;;;;;;;8.05;100.00;99844.78;5028398;28;20038;-67
2024/02/16 03:01:09;;;;;;;0.40;0.40;;;;;;;8.06;100.00;99841.34;5028195;28;20022;-68
2024/02/16 03:03:34;;;;;;;0.40;0.40;;;;;;;8.10;100.00;99851.69;5027651;28;20526;-67
2024/02/16 03:06:00;;;;;;;0.40;0.40;;;;;;;8.05;100.00;99851.72;5026948;28;20088;-67
2024/02/16 03:08:25;;;;;;;0.40;0.40;;;;;;;8.12;100.00;99848.19;5028001;28;20022;-67
2024/02/16 03:10:51;;;;;;;0.40;0.40;;;;;;;8.14;100.00;99849.06;5028048;28;20036;-67
2024/02/16 03:13:18;;;;;;;0.40;0.40;;;;;;;8.14;100.00;99843.88;5027987;28;20034;-66
2024/02/16 03:15:44;;;;;;;0.40;0.40;;;;;;;8.14;100.00;99838.72;5026660;28;20386;-67
2024/02/16 03:18:10;;;;;;;0.40;0.40;;;;;;;8.15;100.00;99842.13;5027875;28;20060;-66
2024/02/16 03:20:35;;;;;;;0.30;0.30;;;;;;;8.12;100.00;99835.28;5027686;28;20026;-66
2024/02/16 03:23:01;;;;;;;0.30;0.30;;;;;;;8.17;100.00;99832.66;5027795;28;20029;-66
2024/02/16 03:25:26;;;;;;;0.40;0.40;;;;;;;8.19;100.00;99824.00;5027584;28;20032;-67
2024/02/16 03:27:54;;;;;;;0.40;0.40;;;;;;;8.24;100.00;99830.88;5027652;28;20037;-65
2024/02/16 03:30:21;;;;;;;0.40;0.40;;;;;;;8.25;100.00;99827.41;5026515;28;20029;-67
2024/02/16 03:32:50;;;;;;;0.38;0.38;;;;;;;8.28;100.00;99824.81;5027631;28;20030;-67
2024/02/16 03:35:16;;;;;;;0.40;0.40;;;;;;;8.30;100.00;99829.09;5027729;28;20081;-67
2024/02/16 03:37:42;;;;;;;0.40;0.40;;;;;;;8.29;100.00;99821.38;5027322;28;20030;-66
2024/02/16 03:40:09;;;;;;;0.40;0.40;;;;;;;8.29;100.00;99811.84;5027412;28;20053;-67
2024/02/16 03:42:35;;;;;;;0.30;0.30;;;;;;;8.30;100.00;99817.91;5027292;28;20022;-67
2024/02/16 03:45:01;;;;;;;0.38;0.38;;;;;;;8.29;100.00;99811.84;5027372;28;20045;-67
2024/02/16 03:47:26;;;;;;;0.40;0.40;;;;;;;8.30;100.00;99815.31;5027301;28;20017;-67
2024/02/16 03:49:51;;;;;;;0.40;0.40;;;;;;;8.32;100.00;99816.16;5025880;28;20084;-66
2024/02/16 03:52:17;;;;;;;0.40;0.40;;;;;;;8.30;100.00;99812.72;5025946;28;20026;-66
2024/02/16 03:54:43;;;;;;;0.40;0.40;;;;;;;8.32;100.00;99818.75;5025664;28;20030;-67
2024/02/16 03:57:11;;;;;;;0.40;0.40;;;;;;;8.33;100.00;99801.47;5027342;28;20101;-67
2024/02/16 03:59:37;;;;;;;0.47;0.47;;;;;;;8.33;100.00;99797.19;5025773;28;20022;-67
2024/02/16 04:02:02;;;;;;;0.40;0.40;;;;;;;8.33;100.00;99801.47;5025913;28;20345;-67
2024/02/16 04:04:28;;;;;;;0.30;0.30;;;;;;;8.34;100.00;99795.47;5026853;28;20032;-67
2024/02/16 04:06:53;;;;;;;0.30;0.30;;;;;;;8.36;100.00;99804.91;5027189;28;20081;-67
2024/02/16 04:09:18;;;;;;;0.40;0.40;;;;;;;8.34;100.00;99792.88;5027021;28;20045;-66
2024/02/16 04:11:45;;;;;;;0.40;0.40;;;;;;;8.33;100.00;99807.53;5027096;28;20076;-67
2024/02/16 04:14:11;;;;;;;0.40;0.40;;;;;;;8.31;100.00;99802.38;5026827;28;20025;-66
2024/02/16 04:16:36;;;;;;;0.40;0.40;;;;;;;8.33;100.00;99806.66;5025428;28;20029;-66
2024/02/16 04:19:02;;;;;;;0.40;0.40;;;;;;;8.32;100.00;99792.88;5026862;28;20061;-68
2024/02/16 04:21:28;;;;;;;0.40;0.40;;;;;;;8.28;100.00;99791.19;5026874;28;20022;-66
2024/02/16 04:23:53;;;;;;;0.30;0.30;;;;;;;8.26;100.00;99798.94;5026518;28;20032;-67
2024/02/16 04:26:18;;;;;;;0.40;0.40;;;;;;;8.23;100.00;99791.22;5025459;28;20018;-68
2024/02/16 04:28:44;;;;;;;0.40;0.40;;;;;;;8.23;100.00;99790.34;5026549;28;20494;-67
2024/02/16 04:31:09;;;;;;;0.30;0.30;;;;;;;8.22;100.00;99788.66;5026704;28;20049;-66
2024/02/16 04:33:34;;;;;;;0.40;0.40;;;;;;;8.19;100.00;99784.38;5026463;28;20026;-67
2024/02/16 04:36:00;;;;;;;0.40;0.40;;;;;;;8.14;100.00;99781.81;5026471;28;20104;-66
2024/02/16 04:38:25;;;;;;;0.40;0.40;;;;;;;8.15;100.00;99786.13;5024932;28;20465;-66
2024/02/16 04:40:50;;;;;;;0.40;0.40;;;;;;;8.09;100.00;99768.06;5026247;28;20093;-66
2024/02/16 04:43:16;;;;;;;0.40;0.40;;;;;;;8.09;100.00;99772.38;5026372;28;20057;-66
2024/02/16 04:45:41;;;;;;;0.40;0.40;;;;;;;8.07;100.00;99772.38;5026333;28;20029;-66
2024/02/16 04:48:07;;;;;;;0.40;0.40;;;;;;;8.06;100.00;99773.28;5026280;28;20037;-67
2024/02/16 04:50:33;;;;;;;0.40;0.40;;;;;;;8.04;100.00;99777.59;5026002;28;20056;-67
2024/02/16 04:53:01;;;;;;;0.40;0.40;;;;;;;7.97;100.00;99779.34;5026056;28;20026;-66
2024/02/16 04:55:28;;;;;;;0.30;0.30;;;;;;;7.88;100.00;99771.69;5025303;28;20053;-66
2024/02/16 04:57:54;;;;;;;0.40;0.40;;;;;;;7.81;100.00;99763.97;5024631;28;20028;-67
2024/02/16 05:00:19;;;;;;;0.32;0.32;;;;;;;7.74;100.00;99764.03;5024723;28;20022;-67
2024/02/16 05:02:46;;;;;;;0.40;0.40;;;;;;;7.63;100.00;99759.81;5025903;28;20066;-66
2024/02/16 05:05:11;;;;;;;0.40;0.40;;;;;;;7.57;100.00;99755.53;5026193;28;20033;-66
2024/02/16 05:07:36;;;;;;;0.40;0.40;;;;;;;7.56;100.00;99760.69;5025889;28;20032;-66
2024/02/16 05:10:02;;;;;;;0.40;0.40;;;;;;;7.53;100.00;99751.25;5025821;28;20033;-66
2024/02/16 05:12:27;;;;;;;1.05;1.05;;;;;;;7.52;100.00;99754.72;5026184;28;20026;-65
2024/02/16 05:14:53;;;;;;;0.40;0.40;;;;;;;7.51;100.00;99749.53;5025824;28;20513;-66
2024/02/16 05:17:20;;;;;;;0.40;0.40;;;;;;;7.46;100.00;99746.97;5025805;28;20025;-66
2024/02/16 05:19:45;;;;;;;0.40;0.40;;;;;;;7.41;100.00;99739.25;5025665;28;20160;-66
2024/02/16 05:22:10;;;;;;;0.40;0.40;;;;;;;7.38;100.00;99733.28;5025678;28;20025;-65
2024/02/16 05:24:36;;;;;;;0.40;0.40;;;;;;;7.39;100.00;99742.72;5025627;28;20025;-65
2024/02/16 05:27:01;;;;;;;0.40;0.40;;;;;;;7.33;100.00;99735.91;5025532;28;20034;-65
2024/02/16 05:29:27;;;;;;;0.40;0.40;;;;;;;7.30;100.00;99730.75;5025463;28;20025;-65
2024/02/16 05:31:52;;;;;;;0.40;0.40;;;;;;;7.31;100.00;99737.63;5024123;28;20037;-66
2024/02/16 05:34:18;;;;;;;0.40;0.40;;;;;;;7.29;100.00;99737.63;5025461;28;20097;-68
2024/02/16 05:36:44;;;;;;;0.30;0.30;;;;;;;7.28;100.00;99743.66;5025498;28;20304;-66
2024/02/16 05:39:20;;;;;;;0.40;0.40;;;;;;;7.30;100.00;99736.75;5025203;28;20109;-67
2024/02/16 05:41:48;;;;;;;0.40;0.40;;;;;;;7.34;100.00;99742.75;5025384;28;20036;-66
2024/02/16 05:44:14;;;;;;;0.40;0.40;;;;;;;7.38;100.00;99741.03;5023973;28;20018;-66
2024/02/16 05:46:39;;;;;;;0.40;0.40;;;;;;;7.38;100.00;99723.78;5025558;28;20080;-67
2024/02/16 05:49:05;;;;;;;0.40;0.40;;;;;;;7.37;100.00;99716.91;5025133;28;20054;-65
2024/02/16 05:51:37;;;;;;;0.38;0.38;;;;;;;7.39;100.00;99724.66;5025396;28;20029;-66
2024/02/16 05:54:02;;;;;;;;;;;;;;;7.41;100.00;99718.59;5025220;28;20052;-66
2024/02/16 05:56:28;;;;;;;0.40;0.40;;;;;;;7.38;100.00;99716.03;5024101;28;19914;-66
2024/02/16 05:58:53;;;;;;;0.40;0.40;;;;;;;7.43;100.00;99716.00;5023962;28;20026;-66
2024/02/16 06:01:19;;;;;;;0.30;0.30;;;;;;;7.42;100.00;99710.00;5025320;28;20100;-66
2024/02/16 06:03:44;;;;;;;0.40;0.40;;;;;;;7.47;100.00;99715.13;5025151;28;20022;-66
2024/02/16 06:06:10;;;;;;;0.40;0.40;;;;;;;7.47;100.00;99704.81;5026107;28;20093;-65
2024/02/16 06:08:35;;;;;;;0.40;0.40;;;;;;;7.49;100.00;99705.63;5029109;28;20022;-67
2024/02/16 06:11:01;;;;;;;0.40;0.40;;;;;;;7.53;100.00;99701.31;5029133;28;20022;-67
2024/02/16 06:13:27;;;;;;;0.40;0.40;;;;;;;7.58;100.00;99699.56;5027892;28;20026;-66
2024/02/16 06:15:54;;;;;;;0.30;0.30;;;;;;;7.62;100.00;99711.56;5029091;28;20030;-65
2024/02/16 06:18:20;;;;;;;0.40;0.40;;;;;;;7.64;100.00;99708.97;5029007;28;20029;-67
2024/02/16 06:20:46;;;;;;;0.40;0.40;;;;;;;7.65;100.00;99700.38;5028978;28;20033;-66
2024/02/16 06:23:11;;;;;;;0.40;0.40;;;;;;;7.69;100.00;99708.09;5028715;28;20026;-66
2024/02/16 06:25:36;;;;;;;0.40;0.40;;;;;;;7.71;100.00;99705.50;5028713;28;20108;-66
2024/02/16 06:28:02;;;;;;;0.40;0.40;;;;;;;7.74;100.00;99714.94;5027401;28;20040;-66
2024/02/16 06:30:28;;;;;;;0.40;0.40;;;;;;;7.80;100.00;99715.75;5028764;28;20022;-67
2024/02/16 06:32:54;;;;;;;0.40;0.40;;;;;;;7.86;100.00;99719.16;5028648;28;20032;-65
2024/02/16 06:35:20;;;;;;;0.40;0.40;;;;;;;7.88;100.00;99718.28;5027482;28;20056;-66
2024/02/16 06:37:45;;;;;;;0.30;0.30;;;;;;;7.90;100.00;99713.09;5028479;28;20041;-66
2024/02/16 06:40:11;;;;;;;0.40;0.40;;;;;;;7.96;100.00;99717.34;5028344;28;20089;-67
2024/02/16 06:42:38;;;;;;;0.40;0.40;;;;;;;8.00;100.00;99711.28;5028673;28;20032;-67
2024/02/16 06:45:05;;;;;;;0.30;0.30;;;;;;;8.04;100.00;99719.00;5028741;28;20100;-66
2024/02/16 06:47:33;;;;;;;0.40;0.40;;;;;;;8.09;100.00;99702.56;5028565;28;20018;-67
2024/02/16 06:49:58;;;;;;;0.40;0.40;;;;;;;8.15;100.00;99702.50;5028553;28;20049;-65
2024/02/16 06:52:23;;;;;;;0.40;0.40;;;;;;;8.19;100.00;99696.47;5028497;28;20030;-66
2024/02/16 06:54:49;;;;;;;0.40;0.40;;;;;;;8.19;100.00;99696.47;5028213;28;20018;-65
2024/02/16 06:57:15;;;;;;;0.30;0.30;;;;;;;8.28;100.00;99700.66;5028483;28;20072;-66
2024/02/16 06:59:41;;;;;;;0.35;0.35;;;;;;;8.30;100.00;99698.94;5028448;28;20030;-67
2024/02/16 07:02:07;;;;;;;0.40;0.40;;;;;;;8.31;100.00;99696.31;5028438;28;20030;-67
2024/02/16 07:04:32;;;;;;;0.40;0.40;;;;;;;8.36;100.00;99703.16;5028326;28;20081;-66
2024/02/16 07:06:58;;;;;;;0.30;0.30;;;;;;;8.41;100.00;99707.44;5028258;28;20013;-66
2024/02/16 07:09:23;;;;;;;0.40;0.40;;;;;;;8.41;100.00;99717.78;5028077;28;20123;-67
2024/02/16 07:11:50;;;;;;;0.40;0.40;;;;;;;8.42;100.00;99700.50;5028316;28;20064;-67
2024/02/16 07:14:15;;;;;;;0.30;0.30;;;;;;;8.53;100.00;99726.28;5028159;28;20030;-68
2024/02/16 07:16:41;;;;;;;0.40;0.40;;;;;;;8.54;100.00;99715.06;5028061;28;20091;-67
2024/02/16 07:19:06;;;;;;;0.40;0.40;;;;;;;8.60;100.00;99707.25;5027381;28;20080;-67
2024/02/16 07:21:32;;;;;;;0.40;0.40;;;;;;;8.66;100.00;99717.53;5026758;28;20029;-66
2024/02/16 07:23:57;;;;;;;0.40;0.40;;;;;;;8.72;100.00;99713.16;5027652;28;20670;-66
2024/02/16 07:26:23;;;;;;;0.30;0.30;;;;;;;8.76;100.00;99689.81;5028004;28;20026;-67
2024/02/16 07:28:48;;;;;;;0.30;0.30;;;;;;;8.85;100.00;99706.94;5026535;28;20064;-66
2024/02/16 07:31:14;;;;;;;0.35;0.35;;;;;;;8.92;100.00;99711.19;5027802;28;20081;-66
2024/02/16 07:33:40;;;;;;;0.40;0.40;;;;;;;8.99;100.00;99709.38;5027828;28;20129;-67
2024/02/16 07:36:06;;;;;;;0.30;0.30;;;;;;;9.04;100.00;99689.44;5027795;28;20053;-67
2024/02/16 07:38:31;;;;;;;0.40;0.40;;;;;;;9.02;100.00;99693.81;5027811;28;20323;-66
2024/02/16 07:40:56;;;;;;;0.40;0.40;;;;;;;9.03;100.00;99707.59;5026150;28;20021;-68
2024/02/16 07:43:23;;;;;;;0.30;0.30;;;;;;;9.03;100.00;99700.69;5026221;28;20033;-66
2024/02/16 07:45:49;;;;;;;0.40;0.40;;;;;;;9.05;100.00;99703.25;5027532;28;20033;-66
2024/02/16 07:48:15;;;;;;;0.40;0.40;;;;;;;9.08;100.00;99689.41;5026296;28;20026;-67
2024/02/16 07:50:41;;;;;;;0.40;0.40;;;;;;;9.06;100.00;99694.59;5027372;28;20145;-67
2024/02/16 07:53:06;;;;;;;0.30;0.30;;;;;;;9.07;100.00;99685.97;5027389;28;20030;-66
2024/02/16 07:55:32;;;;;;;0.30;0.30;;;;;;;9.05;100.00;99672.19;5027405;28;20026;-66
2024/02/16 07:57:57;;;;;;;0.40;0.40;;;;;;;9.04;100.00;99676.50;5027431;28;20027;-65
2024/02/16 08:00:23;;;;;;;0.40;0.40;;;;;;;9.04;100.00;99665.31;5026142;28;20026;-66
2024/02/16 08:02:48;;;;;;;0.30;0.30;;;;;;;9.03;100.00;99671.34;5027350;28;20394;-66
2024/02/16 08:05:14;;;;;;;0.40;0.40;;;;;;;9.03;100.00;99684.28;5026007;28;20021;-66
2024/02/16 08:07:44;;;;;;;0.30;0.30;;;;;;;9.05;100.00;99672.19;5025990;28;20022;-67
2024/02/16 08:10:10;;;;;;;0.30;0.30;;;;;;;9.07;100.00;99662.66;5027314;28;20025;-67
2024/02/16 08:12:35;;;;;;;0.40;0.40;;;;;;;9.10;100.00;99665.22;5025879;28;20091;-66
2024/02/16 08:15:06;;;;;;;0.30;0.30;;;;;;;9.11;100.00;99673.81;5027275;28;20029;-66
2024/02/16 08:17:33;;;;;;;0.45;0.45;;;;;;;9.12;100.00;99673.78;5026798;28;20022;-67
2024/02/16 08:19:59;;;;;;;0.30;0.30;;;;;;;9.15;100.00;99670.31;5027001;28;20022;-67
2024/02/16 08:22:24;;;;;;;0.30;0.30;;;;;;;9.12;100.00;99676.38;5025765;28;20093;-67
2024/02/16 08:24:50;;;;;;;0.40;0.40;;;;;;;9.11;100.00;99653.97;5026860;28;20092;-67
2024/02/16 08:27:15;;;;;;;0.30;0.30;;;;;;;9.09;100.00;99647.13;5026946;28;20585;-67
2024/02/16 08:29:44;;;;;;;0.40;0.40;;;;;;;9.10;100.00;99644.50;5026069;28;20056;-67
2024/02/16 08:32:10;;;;;;;0.30;0.30;;;;;;;9.09;100.00;99663.47;5025404;28;20026;-67
2024/02/16 08:34:38;;;;;;;1.45;1.42;;;;;;;9.08;100.00;99666.97;5026756;28;20121;-67
2024/02/16 08:37:05;;;;;;;0.40;0.40;;;;;;;9.15;100.00;99662.56;5025235;28;20201;-68
2024/02/16 08:39:31;;;;;;;1.10;1.10;;;;;;;9.03;100.00;99658.41;5026379;28;20042;-66
2024/02/16 08:41:58;;;;;;;0.40;0.40;;;;;;;9.01;100.00;99660.16;5026715;28;20029;-68
2024/02/16 08:44:23;;;;;;;0.65;0.65;;;;;;;8.98;100.00;99671.41;5025225;28;20491;-65
2024/02/16 08:46:50;;;;;;;0.35;0.35;;;;;;;8.93;100.00;99670.59;5026764;28;20520;-66
2024/02/16 08:49:16;;;;;;;0.30;0.30;;;;;;;8.95;100.00;99665.41;5026388;28;20038;-66
2024/02/16 08:51:42;;;;;;;0.30;0.30;;;;;;;8.92;100.00;99655.97;5026729;28;20497;-66
2024/02/16 08:54:07;;;;;;;0.47;0.47;;;;;;;8.90;100.00;99648.22;5024752;28;20025;-66
2024/02/16 08:56:35;;;;;;;0.82;0.82;;;;;;;8.99;100.00;99656.75;5026680;28;20018;-67
2024/02/16 08:59:01;;;;;;;0.35;0.35;;;;;;;8.99;100.00;99651.56;5024908;28;20021;-67
2024/02/16 09:01:31;;;;;;;0.40;0.40;;;;;;;9.08;100.00;99650.56;5025397;28;20068;-67
2024/02/16 09:03:57;;;;;;;0.60;0.60;;;;;;;9.03;100.00;99650.63;5026396;28;20049;-66
2024/02/16 09:06:22;;;;;;;0.70;0.70;;;;;;;9.03;100.00;99642.84;5026356;28;20029;-66
2024/02/16 09:08:47;;;;;;;0.45;0.45;;;;;;;9.04;100.00;99634.22;5026218;28;20026;-67
2024/02/16 09:11:14;;;;;;;0.40;0.40;;;;;;;9.05;100.00;99641.13;5024771;28;20048;-66
2024/02/16 09:13:40;;;;;;;0.65;0.63;;;;;;;9.07;100.00;99639.38;5026052;28;20082;-67
2024/02/16 09:16:07;;;;;;;0.32;0.32;;;;;;;9.04;100.00;99642.84;5026100;28;20029;-66
2024/02/16 09:18:32;;;;;;;0.38;0.38;;;;;;;9.01;100.00;99640.28;5026095;28;20086;-66
2024/02/16 09:20:58;;;;;;;0.30;0.30;;;;;;;8.95;100.00;99637.78;5024943;28;20463;-67
2024/02/16 09:23:23;;;;;;;0.40;0.40;;;;;;;8.99;100.00;99633.44;5044274;23;20054;-67
2024/02/16 09:25:50;;;;;;;0.40;0.40;;;;;;;8.95;100.00;99630.03;5023888;23;20057;-67
2024/02/16 09:28:16;;;;;;;1.48;1.48;;;;;;;9.05;100.00;99630.75;5076249;22;20037;-63
2024/02/16 09:30:41;;;;;;;0.40;0.40;;;;;;;9.01;100.00;99629.09;5065600;28;20025;-63
2024/02/16 09:33:07;;;;;;;0.50;0.50;;;;;;;8.96;100.00;99628.31;5065197;28;20021;-64
2024/02/16 09:35:33;;;;;;;1.42;1.42;;;;;;;8.91;100.00;99608.50;5065657;28;20027;-63
2024/02/16 09:37:58;;;;;;;0.30;0.30;;;;;;;9.02;100.00;99621.31;5065205;28;20025;-62
2024/02/16 09:40:24;;;;;;;1.13;1.13;;;;;;;9.03;100.00;99616.97;5063657;28;20029;-63
2024/02/16 09:42:49;;;;;;;1.85;1.77;;;;;;;9.02;100.00;99613.53;5065093;28;20037;-64
2024/02/16 09:45:15;;;;;;;0.40;0.40;;;;;;;9.03;100.00;99611.78;5065323;28;20074;-63
2024/02/16 09:47:49;;;;;;;0.40;0.40;;;;;;;8.88;100.00;99605.94;5065150;28;20037;-63
2024/02/16 09:50:15;;;;;;;0.40;0.40;;;;;;;8.96;100.00;99610.19;5071305;23;20041;-65
2024/02/16 09:52:46;;;;;;;0.50;0.50;;;;;;;8.97;100.00;99611.88;5064463;28;20025;-67
2024/02/16 09:55:12;;;;;;;0.50;0.50;;;;;;;8.99;100.00;99610.13;5064741;28;20029;-66
2024/02/16 09:57:38;;;;;;;1.50;1.40;;;;;;;8.88;100.00;99610.28;5064203;28;20047;-66
2024/02/16 10:00:04;;;;;;;0.40;0.40;;;;;;;8.85;100.00;99612.94;5062093;28;20028;-65
2024/02/16 10:02:41;;;;;;;0.40;0.40;;;;;;;8.79;100.00;99603.50;5064333;28;20032;-65
2024/02/16 10:05:19;;;;;;;2.75;2.15;;;;;;;8.79;100.00;99611.25;5063033;28;20021;-66
2024/02/16 10:07:44;;;;;;;56.78;5.35;;;;;;;8.72;100.00;99615.66;5063384;28;20032;-66
2024/02/16 10:12:48;;;;;;;3.75;3.40;;;;;;;8.62;100.00;99609.78;5063083;23;20066;-64
2024/02/16 10:15:24;;;;;;;1.38;1.33;;;;;;;8.58;100.00;99610.69;5043253;28;20082;-64
2024/02/16 10:18:08;;;;;;;0.93;0.93;;;;;;;8.61;100.00;99620.16;5044710;23;20041;-68
2024/02/16 10:20:35;;;;;;;1.33;1.30;;;;;;;8.55;100.00;99616.75;5043087;28;20033;-68
2024/02/16 10:23:04;;;;;;;0.40;0.40;;;;;;;8.64;100.00;99628.69;5043853;28;20029;-68
2024/02/16 10:25:29;;;;;;;0.75;0.75;;;;;;;8.52;100.00;99618.47;5042723;28;20036;-68
2024/02/16 10:27:58;;;;;;;0.93;0.93;;;;;;;8.48;100.00;99609.06;5043692;28;20022;-68
2024/02/16 10:30:29;;;;;;;0.30;0.30;;;;;;;8.46;100.00;99606.50;5044272;28;20033;-68
2024/02/16 10:32:54;;;;;;;0.55;0.55;;;;;;;8.49;100.00;99601.28;5055181;23;20064;-63
2024/02/16 10:35:22;;;;;;;0.68;0.68;;;;;;;8.45;100.00;99603.94;5063903;28;20041;-63
2024/02/16 10:37:48;;;;;;;0.70;0.70;;;;;;;8.56;100.00;99602.09;5063963;28;20044;-63
2024/02/16 10:40:17;;;;;;;0.38;0.38;;;;;;;8.49;100.00;99596.09;5068385;23;20058;-63
2024/02/16 10:42:45;;;;;;;0.57;0.57;;;;;;;8.52;100.00;99596.06;5043869;28;20048;-62
2024/02/16 10:45:13;;;;;;;0.40;0.40;;;;;;;8.55;100.00;99595.19;5044597;28;20025;-64
2024/02/16 10:47:38;;;;;;;0.30;0.30;;;;;;;8.64;100.00;99587.31;5044673;28;20124;-63
2024/02/16 10:50:05;;;;;;;1.30;1.30;;;;;;;8.65;100.00;99591.63;5044828;28;20029;-63
2024/02/16 10:52:31;;;;;;;0.30;0.30;;;;;;;8.68;100.00;99603.66;5044654;28;20025;-62
2024/02/16 10:54:57;;;;;;;0.90;0.90;;;;;;;8.74;100.00;99600.16;5047694;28;20435;-64
2024/02/16 10:57:24;;;;;;;0.60;0.57;;;;;;;8.70;100.00;99603.63;5030566;28;20021;-63
2024/02/16 10:59:54;;;;;;;0.40;0.40;;;;;;;8.65;100.00;99586.44;5030201;28;20025;-63
2024/02/16 11:02:20;;;;;;;0.30;0.30;;;;;;;8.61;100.00;99589.94;5030524;28;20029;-62
2024/02/16 11:04:49;;;;;;;4.25;4.00;;;;;;;8.63;100.00;99602.84;5048134;28;20029;-63
2024/02/16 11:07:18;;;;;;;0.98;0.98;;;;;;;8.59;100.00;99596.00;5048022;28;20022;-63
2024/02/16 11:09:45;;;;;;;0.40;0.40;;;;;;;8.60;100.00;99588.22;5047964;28;20052;-64
2024/02/16 11:12:13;;;;;;;0.40;0.40;;;;;;;8.63;100.00;99582.16;5047928;28;20022;-63
2024/02/16 11:14:52;;;;;;;2.15;2.05;;;;;;;8.61;100.00;99582.16;5047953;28;20022;-63
2024/02/16 11:17:23;;;;;;;0.40;0.40;;;;;;;8.59;100.00;99571.00;5048099;28;20048;-62
2024/02/16 11:19:49;;;;;;;0.50;0.50;;;;;;;8.62;100.00;99573.56;5047872;28;20377;-63
2024/02/16 11:22:17;;;;;;;0.63;0.63;;;;;;;8.63;100.00;99576.97;5047956;28;20029;-63
2024/02/16 11:24:44;;;;;;;0.40;0.40;;;;;;;8.57;100.00;99569.31;5029540;28;20535;-62
2024/02/16 11:27:10;;;;;;;0.40;0.40;;;;;;;8.61;100.00;99565.81;5030036;28;20362;-63
2024/02/16 11:29:38;;;;;;;0.60;0.60;;;;;;;8.59;100.00;99560.66;5047428;28;20021;-63
2024/02/16 11:32:04;;;;;;;2.15;1.15;;;;;;;8.52;100.00;99554.69;5046957;28;20093;-62